createdAt,value
2023-01-17T00:01:33.942Z,68.84
2023-01-17T00:04:20.194Z,68.13
2023-01-17T00:07:05.888Z,69.11
2023-01-17T00:09:52.418Z,66.99
2023-01-17T00:12:20.544Z,65.27
2023-01-17T00:14:48.322Z,65.33
2023-01-17T00:17:15.561Z,66.79
2023-01-17T00:20:01.344Z,65.97
2023-01-17T00:22:47.986Z,67.90
2023-01-17T00:25:38.079Z,67.79
2023-01-17T00:28:05.835Z,66.08
2023-01-17T00:30:33.461Z,66.05
2023-01-17T00:33:00.769Z,64.53
2023-01-17T00:35:28.852Z,64.41
2023-01-17T00:38:09.194Z,64.22
2023-01-17T00:40:37.486Z,66.27
2023-01-17T00:43:23.401Z,64.51
2023-01-17T00:46:09.772Z,62.64
2023-01-17T00:48:56.032Z,64.10
2023-01-17T00:51:42.344Z,63.36
2023-01-17T00:54:28.123Z,61.65
2023-01-17T00:57:14.408Z,64.60
2023-01-17T01:00:00.181Z,64.37
2023-01-17T01:02:46.606Z,63.47
2023-01-17T01:05:32.631Z,67.98
2023-01-17T01:08:18.869Z,65.11
2023-01-17T01:11:05.455Z,65.98
2023-01-17T01:13:52.152Z,64.01
2023-01-17T01:16:38.218Z,69.88
2023-01-17T01:19:24.607Z,71.22
2023-01-17T01:22:10.258Z,72.31
2023-01-17T01:24:56.670Z,71.90
2023-01-17T01:27:42.826Z,70.14
2023-01-17T01:30:29.026Z,71.23
2023-01-17T01:33:15.048Z,70.68
2023-01-17T01:35:43.037Z,74.69
2023-01-17T01:38:10.199Z,73.61
2023-01-17T01:40:41.747Z,73.01
2023-01-17T01:43:09.330Z,74.20
2023-01-17T01:45:36.607Z,75.50
2023-01-17T01:48:03.729Z,74.72
2023-01-17T01:50:31.533Z,73.51
2023-01-17T01:52:59.352Z,73.15
2023-01-17T01:55:30.532Z,68.78
2023-01-17T01:57:59.086Z,66.58
2023-01-17T02:00:27.339Z,65.61
2023-01-17T02:02:54.817Z,66.11
2023-01-17T02:05:22.892Z,65.97
2023-01-17T02:07:51.083Z,66.49
2023-01-17T02:10:18.578Z,66.07
2023-01-17T02:12:45.926Z,65.72
2023-01-17T02:15:13.144Z,64.66
2023-01-17T02:17:46.788Z,66.02
2023-01-17T02:20:32.960Z,66.80
2023-01-17T02:23:23.100Z,64.71
2023-01-17T02:25:53.318Z,67.23
2023-01-17T02:28:26.931Z,67.09
2023-01-17T02:31:17.371Z,70.80
2023-01-17T02:34:01.331Z,70.96
2023-01-17T02:36:47.505Z,70.40
2023-01-17T02:39:22.266Z,73.94
2023-01-17T02:41:51.660Z,74.60
2023-01-17T02:44:19.853Z,77.38
2023-01-17T02:46:50.804Z,79.73
2023-01-17T02:49:18.284Z,78.16
2023-01-17T02:51:48.499Z,76.27
2023-01-17T02:54:21.733Z,74.49
2023-01-17T02:56:49.170Z,69.75
2023-01-17T02:59:35.112Z,70.22
2023-01-17T03:02:08.476Z,68.54
2023-01-17T03:04:42.922Z,67.03
2023-01-17T03:07:11.813Z,68.85
2023-01-17T03:09:40.677Z,64.91
2023-01-17T03:12:08.765Z,63.89
2023-01-17T03:14:36.290Z,62.98
2023-01-17T03:17:03.508Z,64.16
2023-01-17T03:19:31.395Z,64.68
2023-01-17T03:21:58.861Z,66.76
2023-01-17T03:24:26.070Z,65.68
2023-01-17T03:26:53.438Z,64.08
2023-01-17T03:29:20.888Z,66.11
2023-01-17T03:31:48.048Z,66.50
2023-01-17T03:34:15.265Z,64.75
2023-01-17T03:36:42.738Z,63.93
2023-01-17T03:39:09.993Z,62.43
2023-01-17T03:41:37.241Z,61.93
2023-01-17T03:44:04.709Z,63.13
2023-01-17T03:46:31.882Z,67.49
2023-01-17T03:48:59.074Z,70.46
2023-01-17T03:51:27.150Z,67.22
2023-01-17T03:53:54.347Z,63.91
2023-01-17T03:56:21.605Z,62.14
2023-01-17T03:58:49.122Z,61.64
2023-01-17T04:01:16.394Z,61.58
2023-01-17T04:03:44.051Z,65.40
2023-01-17T04:06:11.215Z,65.38
2023-01-17T04:08:38.431Z,63.94
2023-01-17T04:11:05.915Z,62.53
2023-01-17T04:13:33.226Z,68.53
2023-01-17T04:16:00.717Z,70.21
2023-01-17T04:18:28.232Z,67.68
2023-01-17T04:20:55.374Z,68.96
2023-01-17T04:23:22.508Z,67.73
2023-01-17T04:25:49.968Z,64.65
2023-01-17T04:28:17.104Z,66.52
2023-01-17T04:30:44.289Z,67.83
2023-01-17T04:33:11.778Z,64.76
2023-01-17T04:35:39.015Z,67.61
2023-01-17T04:38:06.179Z,64.91
2023-01-17T04:40:33.639Z,66.71
2023-01-17T04:43:00.866Z,64.51
2023-01-17T04:45:28.104Z,63.61
2023-01-17T04:47:55.602Z,64.45
2023-01-17T04:50:22.861Z,66.15
2023-01-17T04:52:50.067Z,66.44
2023-01-17T04:55:17.640Z,65.52
2023-01-17T04:57:44.819Z,65.54
2023-01-17T05:00:12.286Z,65.98
2023-01-17T05:02:39.971Z,67.61
2023-01-17T05:05:07.367Z,68.96
2023-01-17T05:07:35.802Z,68.89
2023-01-17T05:10:04.519Z,70.96
2023-01-17T05:12:31.758Z,72.40
2023-01-17T05:14:58.938Z,69.03
2023-01-17T05:17:26.431Z,71.88
2023-01-17T05:19:53.968Z,70.87
2023-01-17T05:22:21.136Z,74.13
2023-01-17T05:24:48.584Z,75.01
2023-01-17T05:27:15.850Z,73.77
2023-01-17T05:29:43.052Z,73.14
2023-01-17T05:32:10.564Z,72.71
2023-01-17T05:34:37.901Z,73.02
2023-01-17T05:37:05.088Z,72.39
2023-01-17T05:39:32.521Z,72.57
2023-01-17T05:41:59.746Z,73.03
2023-01-17T05:44:27.708Z,70.24
2023-01-17T05:46:56.131Z,72.27
2023-01-17T05:49:23.425Z,75.19
2023-01-17T05:51:50.648Z,73.80
2023-01-17T05:54:18.099Z,73.26
2023-01-17T05:56:45.242Z,72.95
2023-01-17T05:59:14.195Z,74.94
2023-01-17T06:01:41.857Z,75.70
2023-01-17T06:04:09.309Z,74.67
2023-01-17T06:06:36.523Z,75.04
2023-01-17T06:09:03.754Z,75.13
2023-01-17T06:11:31.266Z,74.47
2023-01-17T06:13:58.401Z,73.35
2023-01-17T06:16:25.635Z,74.41
2023-01-17T06:18:53.178Z,71.36
2023-01-17T06:21:20.346Z,73.36
2023-01-17T06:23:47.590Z,73.57
2023-01-17T06:26:15.046Z,73.16
2023-01-17T06:28:42.369Z,75.96
2023-01-17T06:31:09.673Z,74.74
2023-01-17T06:33:37.179Z,75.43
2023-01-17T06:36:04.553Z,74.12
2023-01-17T06:38:31.790Z,71.74
2023-01-17T06:41:00.418Z,71.35
2023-01-17T06:43:28.500Z,71.90
2023-01-17T06:45:55.739Z,71.95
2023-01-17T06:48:23.172Z,71.68
2023-01-17T06:50:50.407Z,71.96
2023-01-17T06:53:17.545Z,72.14
2023-01-17T06:55:45.129Z,73.46
2023-01-17T06:58:12.312Z,74.56
2023-01-17T07:00:40.923Z,74.31
2023-01-17T07:03:17.593Z,73.74
2023-01-17T07:05:44.781Z,71.93
2023-01-17T07:08:12.252Z,70.71
2023-01-17T07:10:39.411Z,71.94
2023-01-17T07:13:06.678Z,69.28
2023-01-17T07:15:34.180Z,70.95
2023-01-17T07:18:02.004Z,70.59
2023-01-17T07:20:29.370Z,70.07
2023-01-17T07:22:56.847Z,68.66
2023-01-17T07:25:24.065Z,68.51
2023-01-17T07:27:55.022Z,66.30
2023-01-17T07:30:22.530Z,65.48
2023-01-17T07:32:53.566Z,65.89
2023-01-17T07:35:20.823Z,65.54
2023-01-17T07:37:51.262Z,66.00
2023-01-17T07:40:18.829Z,65.49
2023-01-17T07:42:46.327Z,66.57
2023-01-17T07:45:14.264Z,63.92
2023-01-17T07:47:41.440Z,63.41
2023-01-17T07:50:09.455Z,62.82
2023-01-17T07:52:36.900Z,63.34
2023-01-17T07:55:05.149Z,62.93
2023-01-17T07:57:33.172Z,61.07
2023-01-17T08:00:00.632Z,60.70
2023-01-17T08:02:27.852Z,60.81
2023-01-17T08:04:55.311Z,61.57
2023-01-17T08:07:22.461Z,61.02
2023-01-17T08:09:50.489Z,60.10
2023-01-17T08:12:18.073Z,58.11
2023-01-17T08:14:45.236Z,56.27
2023-01-17T08:17:13.169Z,55.31
2023-01-17T08:19:40.599Z,54.52
2023-01-17T08:22:08.015Z,54.62
2023-01-17T08:24:35.177Z,53.85
2023-01-17T08:27:02.669Z,52.90
2023-01-17T08:29:29.856Z,51.80
2023-01-17T08:31:57.067Z,46.92
2023-01-17T08:34:24.591Z,46.70
2023-01-17T08:36:54.598Z,49.20
2023-01-17T08:39:21.828Z,48.94
2023-01-17T08:41:49.289Z,48.09
2023-01-17T08:44:16.484Z,49.80
2023-01-17T08:46:44.247Z,48.77
2023-01-17T08:49:12.211Z,49.05
2023-01-17T08:51:39.910Z,48.89
2023-01-17T08:54:07.375Z,47.45
2023-01-17T08:56:35.022Z,45.96
2023-01-17T08:59:03.189Z,45.48
2023-01-17T09:01:30.577Z,44.50
2023-01-17T09:03:58.187Z,43.64
2023-01-17T09:06:25.457Z,40.34
2023-01-17T09:08:54.643Z,38.65
2023-01-17T09:11:22.091Z,39.23
2023-01-17T09:13:49.334Z,39.39
2023-01-17T09:16:16.522Z,38.04
2023-01-17T09:18:43.996Z,35.51
2023-01-17T09:21:15.435Z,34.99
2023-01-17T09:23:42.734Z,34.23
2023-01-17T09:26:15.207Z,33.68
2023-01-17T09:28:42.763Z,30.37
2023-01-17T09:31:10.360Z,28.51
2023-01-17T09:33:37.773Z,29.91
2023-01-17T09:36:05.545Z,31.27
2023-01-17T09:38:33.043Z,31.34
2023-01-17T09:41:00.328Z,31.25
2023-01-17T09:43:41.061Z,32.03
2023-01-17T09:46:12.506Z,32.24
2023-01-17T09:48:39.728Z,32.69
2023-01-17T09:51:12.551Z,33.72
2023-01-17T09:53:41.563Z,34.07
2023-01-17T09:56:16.140Z,34.89
2023-01-17T09:58:43.596Z,35.21
2023-01-17T10:01:13.148Z,35.22
2023-01-17T10:03:46.703Z,36.65
2023-01-17T10:06:16.524Z,36.58
2023-01-17T10:09:03.900Z,37.03
2023-01-17T10:11:43.324Z,36.63
2023-01-17T10:14:25.893Z,34.31
2023-01-17T10:17:02.264Z,33.73
2023-01-17T10:19:48.486Z,33.12
2023-01-17T10:22:15.669Z,31.14
2023-01-17T10:24:46.142Z,30.84
2023-01-17T10:27:15.931Z,31.62
2023-01-17T10:29:43.378Z,31.44
2023-01-17T10:32:10.709Z,29.57
2023-01-17T10:34:40.550Z,27.97
2023-01-17T10:37:19.545Z,24.71
2023-01-17T10:39:48.908Z,23.68
2023-01-17T10:42:20.753Z,23.11
2023-01-17T10:44:50.393Z,21.84
2023-01-17T10:47:22.199Z,19.63
2023-01-17T10:49:52.720Z,19.84
2023-01-17T10:52:43.387Z,21.21
2023-01-17T10:55:12.902Z,21.24
2023-01-17T10:57:41.559Z,22.71
2023-01-17T11:00:19.306Z,24.60
2023-01-17T11:02:49.598Z,26.05
2023-01-17T11:05:25.354Z,25.81
2023-01-17T11:08:02.927Z,25.48
2023-01-17T11:10:58.015Z,25.58
2023-01-17T11:13:26.610Z,24.54
2023-01-17T11:15:59.130Z,25.43
2023-01-17T11:18:28.323Z,25.54
2023-01-17T11:21:15.806Z,25.92
2023-01-17T11:23:50.091Z,27.14
2023-01-17T11:26:21.620Z,25.94
2023-01-17T11:28:49.075Z,26.14
2023-01-17T11:31:16.725Z,25.85
2023-01-17T11:33:56.830Z,26.29
2023-01-17T11:36:28.098Z,26.70
2023-01-17T11:39:21.855Z,28.10
2023-01-17T11:41:49.389Z,27.28
2023-01-17T11:44:20.657Z,28.29
2023-01-17T11:46:47.940Z,29.04
2023-01-17T11:49:25.361Z,29.40
2023-01-17T11:51:56.372Z,30.79
2023-01-17T11:54:31.871Z,31.41
2023-01-17T11:57:02.033Z,35.58
2023-01-17T11:59:31.558Z,34.59
2023-01-17T12:02:16.246Z,33.69
2023-01-17T12:04:45.683Z,33.04
2023-01-17T12:07:17.119Z,33.35
2023-01-17T12:09:47.307Z,34.42
2023-01-17T12:12:39.988Z,36.23
2023-01-17T12:15:10.505Z,38.37
2023-01-17T12:17:45.561Z,38.68
2023-01-17T12:20:16.452Z,40.49
2023-01-17T12:22:49.877Z,41.02
2023-01-17T12:25:32.479Z,41.80
2023-01-17T12:27:59.868Z,41.02
2023-01-17T12:30:27.298Z,43.32
2023-01-17T12:33:00.723Z,43.78
2023-01-17T12:35:30.991Z,43.64
2023-01-17T12:38:05.296Z,45.11
2023-01-17T12:40:35.523Z,45.97
2023-01-17T12:43:23.152Z,44.81
2023-01-17T12:45:50.628Z,45.04
2023-01-17T12:48:18.816Z,43.76
2023-01-17T12:50:45.929Z,43.07
2023-01-17T12:53:22.192Z,42.83
2023-01-17T12:55:55.486Z,41.68
2023-01-17T12:58:24.706Z,40.83
2023-01-17T13:01:03.514Z,43.83
2023-01-17T13:03:48.588Z,44.28
2023-01-17T13:06:20.047Z,45.82
2023-01-17T13:08:49.702Z,45.43
2023-01-17T13:11:18.705Z,43.67
2023-01-17T13:13:47.311Z,46.03
2023-01-17T13:16:15.839Z,43.59
2023-01-17T13:18:47.123Z,44.72
2023-01-17T13:21:30.481Z,42.89
2023-01-17T13:23:59.114Z,43.91
2023-01-17T13:26:30.547Z,44.80
2023-01-17T13:29:00.974Z,46.12
2023-01-17T13:31:28.401Z,48.04
2023-01-17T13:34:01.605Z,46.77
2023-01-17T13:36:41.228Z,47.66
2023-01-17T13:39:11.427Z,46.70
2023-01-17T13:41:41.547Z,50.29
2023-01-17T13:44:21.547Z,49.39
2023-01-17T13:46:55.865Z,47.18
2023-01-17T13:49:26.188Z,51.68
2023-01-17T13:52:07.559Z,50.92
2023-01-17T13:54:35.130Z,49.94
2023-01-17T13:57:21.412Z,53.36
2023-01-17T13:59:48.723Z,51.80
2023-01-17T14:02:34.764Z,51.93
2023-01-17T14:05:05.114Z,52.48
2023-01-17T14:07:32.606Z,50.72
2023-01-17T14:09:59.868Z,52.67
2023-01-17T14:12:31.450Z,51.04
2023-01-17T14:15:00.684Z,52.53
2023-01-17T14:17:34.888Z,54.82
2023-01-17T14:20:05.135Z,55.25
2023-01-17T14:22:36.020Z,58.46
2023-01-17T14:25:09.764Z,59.53
2023-01-17T14:27:40.412Z,55.62
2023-01-17T14:30:16.615Z,57.09
2023-01-17T14:33:10.687Z,55.08
2023-01-17T14:35:38.989Z,54.50
2023-01-17T14:38:20.928Z,53.86
2023-01-17T14:40:54.515Z,55.36
2023-01-17T14:43:23.069Z,53.90
2023-01-17T14:45:55.863Z,55.59
2023-01-17T14:48:23.564Z,54.49
2023-01-17T14:50:52.070Z,53.62
2023-01-17T14:53:21.283Z,54.17
2023-01-17T14:55:48.938Z,53.79
2023-01-17T14:58:16.605Z,53.95
2023-01-17T15:00:43.935Z,55.41
2023-01-17T15:03:11.861Z,57.72
2023-01-17T15:05:40.204Z,56.24
2023-01-17T15:08:11.148Z,57.31
2023-01-17T15:10:43.574Z,56.25
2023-01-17T15:13:10.809Z,55.69
2023-01-17T15:15:39.830Z,56.70
2023-01-17T15:18:13.386Z,57.02
2023-01-17T15:20:45.985Z,59.60
2023-01-17T15:23:14.639Z,59.84
2023-01-17T15:25:41.900Z,56.53
2023-01-17T15:28:10.038Z,54.89
2023-01-17T15:30:37.519Z,54.68
2023-01-17T15:33:04.767Z,55.30
2023-01-17T15:35:32.234Z,54.60
2023-01-17T15:38:01.302Z,55.55
2023-01-17T15:40:31.377Z,56.06
2023-01-17T15:42:59.409Z,57.49
2023-01-17T15:45:30.802Z,56.57
2023-01-17T15:47:59.319Z,56.14
2023-01-17T15:50:30.782Z,57.02
2023-01-17T15:53:02.311Z,56.09
2023-01-17T15:55:39.275Z,55.82
2023-01-17T15:58:22.960Z,55.46
2023-01-17T16:00:50.601Z,55.23
2023-01-17T16:03:18.164Z,55.47
2023-01-17T16:05:45.671Z,54.27
2023-01-17T16:08:15.407Z,54.21
2023-01-17T16:10:43.292Z,54.62
2023-01-17T16:13:11.210Z,54.70
2023-01-17T16:15:38.426Z,53.52
2023-01-17T16:18:16.073Z,53.63
2023-01-17T16:20:58.218Z,54.57
2023-01-17T16:23:25.774Z,54.00
2023-01-17T16:25:54.027Z,53.82
2023-01-17T16:28:21.298Z,53.46
2023-01-17T16:30:49.003Z,53.39
2023-01-17T16:33:16.592Z,53.97
2023-01-17T16:35:43.763Z,55.77
2023-01-17T16:38:12.582Z,54.51
2023-01-17T16:40:40.618Z,56.26
2023-01-17T16:43:07.828Z,56.73
2023-01-17T16:45:39.341Z,56.49
2023-01-17T16:48:06.777Z,58.13
2023-01-17T16:50:33.968Z,58.16
2023-01-17T16:53:01.418Z,60.54
2023-01-17T16:55:28.616Z,60.02
2023-01-17T16:57:56.486Z,60.59
2023-01-17T17:00:23.928Z,61.24
2023-01-17T17:02:51.712Z,61.20
2023-01-17T17:05:19.340Z,60.71
2023-01-17T17:07:50.761Z,60.92
2023-01-17T17:10:19.893Z,61.34
2023-01-17T17:12:47.491Z,61.64
2023-01-17T17:15:14.707Z,62.95
2023-01-17T17:17:43.210Z,64.66
2023-01-17T17:20:12.285Z,63.37
2023-01-17T17:22:39.880Z,64.57
2023-01-17T17:25:07.181Z,65.10
2023-01-17T17:27:34.823Z,64.40
2023-01-17T17:30:02.197Z,65.19
2023-01-17T17:32:29.605Z,64.51
2023-01-17T17:34:57.124Z,66.48
2023-01-17T17:37:24.405Z,66.10
2023-01-17T17:39:51.589Z,66.43
2023-01-17T17:42:20.047Z,66.88
2023-01-17T17:44:47.250Z,66.03
2023-01-17T17:47:16.131Z,67.24
2023-01-17T17:49:43.844Z,68.23
2023-01-17T17:52:11.008Z,68.98
2023-01-17T17:54:38.559Z,68.27
2023-01-17T17:57:06.543Z,67.80
2023-01-17T17:59:33.804Z,68.44
2023-01-17T18:02:01.488Z,68.65
2023-01-17T18:04:29.725Z,68.96
2023-01-17T18:06:57.552Z,72.03
2023-01-17T18:09:24.728Z,73.17
2023-01-17T18:11:53.126Z,69.17
2023-01-17T18:14:23.905Z,70.12
2023-01-17T18:16:51.723Z,70.59
2023-01-17T18:19:23.319Z,71.64
2023-01-17T18:21:51.386Z,73.27
2023-01-17T18:24:20.317Z,74.75
2023-01-17T18:26:48.532Z,74.30
2023-01-17T18:29:16.342Z,72.39
2023-01-17T18:31:44.431Z,71.41
2023-01-17T18:34:13.205Z,71.49
2023-01-17T18:36:40.666Z,70.97
2023-01-17T18:39:16.471Z,72.10
2023-01-17T18:41:43.850Z,71.60
2023-01-17T18:44:11.784Z,73.86
2023-01-17T18:46:40.311Z,72.54
2023-01-17T18:49:09.811Z,72.46
2023-01-17T18:51:37.480Z,74.31
2023-01-17T18:54:06.927Z,76.14
2023-01-17T18:56:38.000Z,75.82
2023-01-17T18:59:06.158Z,76.54
2023-01-17T19:01:35.831Z,76.04
2023-01-17T19:04:04.358Z,76.28
2023-01-17T19:06:33.225Z,76.37
2023-01-17T19:09:00.657Z,76.23
2023-01-17T19:11:28.491Z,75.90
2023-01-17T19:13:56.372Z,75.99
2023-01-17T19:16:24.982Z,76.61
2023-01-17T19:18:52.595Z,75.59
2023-01-17T19:21:21.296Z,74.08
2023-01-17T19:23:49.091Z,74.30
2023-01-17T19:26:17.289Z,75.48
2023-01-17T19:28:45.155Z,73.69
2023-01-17T19:31:22.265Z,74.24
2023-01-17T19:33:51.208Z,75.33
2023-01-17T19:36:19.699Z,72.72
2023-01-17T19:39:03.078Z,72.19
2023-01-17T19:41:32.411Z,72.72
2023-01-17T19:44:00.492Z,73.40
2023-01-17T19:46:28.186Z,73.65
2023-01-17T19:48:56.011Z,73.57
2023-01-17T19:51:23.527Z,73.24
2023-01-17T19:53:50.879Z,73.37
2023-01-17T19:56:19.190Z,70.85
2023-01-17T19:58:47.760Z,70.39
2023-01-17T20:01:15.101Z,70.57
2023-01-17T20:03:44.260Z,73.09
2023-01-17T20:06:12.468Z,69.18
2023-01-17T20:08:40.579Z,70.78
2023-01-17T20:11:10.727Z,69.30
2023-01-17T20:13:38.190Z,69.60
2023-01-17T20:16:06.579Z,69.27
2023-01-17T20:18:34.671Z,70.55
2023-01-17T20:21:09.016Z,67.58
2023-01-17T20:23:38.457Z,67.80
2023-01-17T20:26:05.974Z,69.45
2023-01-17T20:28:33.970Z,67.36
2023-01-17T20:31:05.334Z,67.29
2023-01-17T20:33:33.345Z,68.77
2023-01-17T20:36:09.990Z,72.06
2023-01-17T20:38:45.022Z,71.77
2023-01-17T20:41:25.689Z,72.78
2023-01-17T20:43:54.006Z,71.12
2023-01-17T20:46:21.871Z,73.23
2023-01-17T20:48:50.403Z,75.08
2023-01-17T20:51:18.365Z,71.89
2023-01-17T20:53:46.141Z,71.05
2023-01-17T20:56:14.229Z,72.37
2023-01-17T20:58:42.063Z,72.54
2023-01-17T21:01:10.220Z,70.93
2023-01-17T21:03:38.078Z,72.42
2023-01-17T21:06:06.801Z,72.98
2023-01-17T21:08:35.092Z,73.20
2023-01-17T21:11:02.375Z,73.09
2023-01-17T21:13:31.687Z,73.36
2023-01-17T21:15:59.009Z,73.33
2023-01-17T21:18:26.842Z,71.81
2023-01-17T21:20:55.206Z,73.30
2023-01-17T21:23:29.203Z,73.93
2023-01-17T21:25:57.511Z,74.28
2023-01-17T21:28:25.674Z,75.21
2023-01-17T21:30:53.358Z,74.51
2023-01-17T21:33:21.649Z,76.41
2023-01-17T21:35:48.822Z,75.98
2023-01-17T21:38:16.353Z,75.20
2023-01-17T21:40:44.131Z,75.29
2023-01-17T21:43:11.422Z,74.08
2023-01-17T21:45:39.026Z,73.62
2023-01-17T21:48:07.196Z,72.46
2023-01-17T21:50:34.409Z,70.11
2023-01-17T21:53:02.229Z,69.05
2023-01-17T21:55:48.670Z,67.59
2023-01-17T21:58:35.196Z,66.78
2023-01-17T22:01:17.692Z,65.61
2023-01-17T22:03:47.499Z,64.52
2023-01-17T22:06:14.703Z,64.53
2023-01-17T22:08:41.953Z,63.36
2023-01-17T22:11:13.327Z,63.57
2023-01-17T22:13:40.941Z,62.68
2023-01-17T22:16:09.222Z,63.43
2023-01-17T22:18:38.303Z,62.28
2023-01-17T22:21:08.651Z,62.26
2023-01-17T22:23:36.095Z,61.17
2023-01-17T22:26:04.491Z,60.71
2023-01-17T22:28:32.184Z,61.39
2023-01-17T22:31:16.157Z,61.87
2023-01-17T22:33:45.419Z,61.43
2023-01-17T22:36:16.073Z,60.77
2023-01-17T22:38:43.674Z,60.66
2023-01-17T22:41:13.101Z,59.01
2023-01-17T22:43:41.510Z,58.71
2023-01-17T22:46:09.934Z,58.65
2023-01-17T22:48:37.397Z,59.39
2023-01-17T22:51:06.428Z,59.17
2023-01-17T22:53:33.909Z,59.36
2023-01-17T22:56:02.138Z,57.81
2023-01-17T22:58:29.624Z,57.65
2023-01-17T23:01:10.787Z,56.94
2023-01-17T23:03:38.281Z,60.38
2023-01-17T23:06:12.984Z,57.78
2023-01-17T23:08:41.083Z,57.66
2023-01-17T23:11:42.257Z,56.89
2023-01-17T23:14:16.924Z,56.62
2023-01-17T23:17:04.829Z,56.81
2023-01-17T23:19:36.205Z,56.90
2023-01-17T23:22:16.402Z,57.10
2023-01-17T23:24:44.217Z,56.84
2023-01-17T23:27:56.808Z,56.79
2023-01-17T23:30:25.513Z,57.13
2023-01-17T23:32:53.601Z,59.47
2023-01-17T23:35:21.648Z,58.76
2023-01-17T23:38:07.447Z,58.76
2023-01-17T23:40:35.508Z,57.51
2023-01-17T23:43:21.336Z,57.04
2023-01-17T23:45:49.073Z,56.85
2023-01-17T23:48:16.278Z,57.61
2023-01-17T23:50:44.532Z,56.87
2023-01-17T23:53:15.459Z,56.10
2023-01-17T23:55:43.086Z,55.93
2023-01-17T23:58:10.905Z,56.08
